Tilden, TX (78072)

1:27 PM CDT on June 02, 2015 (GMT -0500)
Huajuco Road | | Change Station
CLOSE
Current Station
Personal Weather Station
Location: Cotulla, TX
Elevation: 394 ft
Nearby Weather Stations
Active Advisory: Flood Warning

Elev 394 ft 28.19 °N, 99.01 °W | Updated 15 seconds ago

Clear
Clear
85.2 °F
Feels Like 88 °F
N
5.1
Wind Variable Wind from SSE
Gusts 7.0 mph

Today
High -- | Low -- °F
--% Chance of Precip.
Yesterday
High -- | Low -- °F
Precip. -- in
6:37 AM 8:27 PM
Full, 100% visible
Pressure 30.01 in
Visibility 10.0 miles
Clouds Few 11000 ft
Heat Index 88 °F
Dew Point 67 °F
Humidity 56%
Rainfall 0.00 in
Snow Depth Not available.
UV 12 out of 12
Pollen 6.00 out of 12
Air Quality Not available.
Flu Activity Local Activity
METAR KCOT 021753Z AUTO 15006G17KT 10SM FEW110 31/19 A3001

More Conditions Fewer Conditions

Pressure 30.01 in
Visibility 10.0 miles
Clouds Few 11000 ft
Heat Index 88 °F
Dew Point 67 °F
Humidity 56%
Rainfall 0.00 in
Snow Depth Not available.
UV 12 out of 12
Pollen 6.00 out of 12
Air Quality Not available.
Flu Activity Local Activity
METAR KCOT 021753Z AUTO 15006G17KT 10SM FEW110 31/19 A3001

More Conditions Fewer Conditions

10-Day Weather Forecast

×

Almanac

Astronomy

Jun. 02, 2015 Rise Set
Actual Time
Civil Twilight
Nautical Twilight
Astronomical Twilight
Moon
Length of Visible Light
Length of Day
Tomorrow will be .
, % of the Moon is Illuminated

Today's Extremes

State Highs State Lows

Community

WunderPhotos

Upload Photos

1,825,995 photos uploaded!

WunderBlogs® & News

Nearby

Air Quality

  Air Quality AQ Index Pollutant
Not available.

Snow Depth

Station Depth Elevation

Earthquake Activity

City Distance Mag. Time & Date
Minimum magnitude displayed is 2.5.

Coastal Water Temperatures

Place Temperature

Stations

Nearby Weather Stations

Station Location Temp. Windchill Dew Point Humidity Wind Precip. Elev Updated Type
                   
Flood Warning
Statement as of 8:57 AM CDT on June 02, 2015

The Flood Warning continues for
the Nueces River near Tilden.
* Until further notice... or until the warning is cancelled.
* At 8:30 am Tuesday the stage was 20.0 feet.
* Major flooding is occurring and major flooding is forecast.
* Flood stage is 14.0 feet.
* Forecast: the river will continue rising to near 20.1 feet early
Thursday morning then begin falling.

* At 20.0 feet major flooding below Cotulla to below Tilden occurs,
and cuts off extensive portions of the flood plain, requiring
wholesale evacuation of livestock from the area. Roads and bridges
near the river flood severely. Hunting Cabins, pump Jacks, Tank
batteries, irrigation pumps and any equipment in low areas near the
river flood.



Below are the latest river stages and stage forecasts:


                      fld latest forecast 6 am lst
location stg stg day time Wed Thu Fri Sat sun

Nueces River
Tilden 14 20.0 Tue 08 am 20.0 20.1 19.6 19.2 19.0




Lat... Lon 2817 9880 2836 9859 2845 9833 2833 9833
      2826 9854 2807 9880